Time;durP1;ratioP1;P1;durP2;ratioP2;P2;SDS_P1;SDS_P2;PMS_P1;PMS_P2;Temp;Humidity;BMP_temperature;BMP_pressure;BME280_temperature;BME280_humidity;BME280_pressure;Samples;Min_cycle;Max_cycle;Signal;HPM_P1;HPM_P2
2023/10/04 07:18:34;;;;;;;;;5.00;3.67;;;;;;;;6235687;22;46809;-73
2023/10/04 07:20:59;;;;;;;;;6.00;4.67;;;;;;;;6302282;22;45839;-73
2023/10/04 07:23:24;;;;;;;;;3.00;3.00;;;;;;;;6278602;22;45243;-72
2023/10/04 07:25:50;;;;;;;;;10.00;5.67;;;;;;;;6308006;22;45309;-74
2023/10/04 07:28:15;;;;;;;;;7.00;3.67;;;;;;;;6307750;22;45324;-72
2023/10/04 07:30:40;;;;;;;;;3.33;3.33;;;;;;;;6306459;22;45300;-72
2023/10/04 07:33:07;;;;;;;;;4.33;3.00;;;;;;;;6307002;22;45309;-72
2023/10/04 07:35:33;;;;;;;;;3.00;3.00;;;;;;;;6308576;22;45280;-74
2023/10/04 07:37:58;;;;;;;;;4.33;3.00;;;;;;;;6278571;22;46227;-73
2023/10/04 07:40:24;;;;;;;;;3.67;3.67;;;;;;;;6280262;22;47246;-73
2023/10/04 07:42:54;;;;;;;;;8.00;4.00;;;;;;;;6307469;22;45333;-73
2023/10/04 07:45:23;;;;;;;;;4.33;3.00;;;;;;;;6308089;22;45308;-73
2023/10/04 07:47:48;;;;;;;;;5.00;3.00;;;;;;;;6278324;22;45333;-73
2023/10/04 07:50:15;;;;;;;;;6.00;3.00;;;;;;;;6306150;22;46465;-73
2023/10/04 07:52:41;;;;;;;;;4.33;2.67;;;;;;;;6307739;22;45188;-73
2023/10/04 07:55:22;;;;;;;;;5.67;4.00;;;;;;;;6307782;22;45282;-73
2023/10/04 07:57:48;;;;;;;;;7.33;3.33;;;;;;;;6307520;22;45353;-73
2023/10/04 08:00:14;;;;;;;;;3.00;3.00;;;;;;;;6307771;22;45354;-73
2023/10/04 08:02:49;;;;;;;;;8.00;6.33;;;;;;;;6308247;22;45254;-73
2023/10/04 08:05:19;;;;;;;;;5.67;4.67;;;;;;;;6307031;22;45529;-73
2023/10/04 08:07:45;;;;;;;;;6.33;3.00;;;;;;;;6307397;22;45313;-73
2023/10/04 08:10:10;;;;;;;;;1.33;0.67;;;;;;;;6307367;22;45340;-73
2023/10/04 08:12:35;;;;;;;;;4.33;3.00;;;;;;;;6307850;22;45219;-73
2023/10/04 08:15:03;;;;;;;;;8.33;3.67;;;;;;;;6307718;22;45483;-73
2023/10/04 08:17:29;;;;;;;;;4.00;4.00;;;;;;;;6307490;22;45330;-73
2023/10/04 08:19:55;;;;;;;;;3.33;3.00;;;;;;;;6328070;22;45314;-73
2023/10/04 08:22:22;;;;;;;;;5.33;4.00;;;;;;;;6338556;22;45208;-73
2023/10/04 08:24:49;;;;;;;;;4.00;3.00;;;;;;;;6340450;22;45198;-73
2023/10/04 08:27:16;;;;;;;;;2.00;2.00;;;;;;;;6340193;22;45101;-73
2023/10/04 08:29:43;;;;;;;;;3.67;3.67;;;;;;;;6339856;22;45816;-70
2023/10/04 08:32:08;;;;;;;;;4.00;3.00;;;;;;;;6340718;22;45313;-70
2023/10/04 08:34:33;;;;;;;;;5.33;3.67;;;;;;;;6340164;22;45153;-70
2023/10/04 08:36:59;;;;;;;;;6.00;4.00;;;;;;;;6340954;22;45255;-70
2023/10/04 08:39:24;;;;;;;;;3.33;3.33;;;;;;;;6312087;22;46024;-70
2023/10/04 08:41:49;;;;;;;;;4.00;3.00;;;;;;;;6311590;22;45381;-70
2023/10/04 08:44:15;;;;;;;;;4.00;3.00;;;;;;;;6340731;22;45451;-71
2023/10/04 08:46:43;;;;;;;;;6.33;6.00;;;;;;;;6340797;22;45176;-70
2023/10/04 08:49:10;;;;;;;;;2.67;2.67;;;;;;;;6311377;22;46966;-70
2023/10/04 08:51:42;;;;;;;;;7.67;5.00;;;;;;;;6312005;22;45236;-71
2023/10/04 08:54:14;;;;;;;;;7.67;4.00;;;;;;;;6340626;22;45238;-70
2023/10/04 08:56:44;;;;;;;;;6.00;5.33;;;;;;;;6340603;22;45282;-70
2023/10/04 08:59:11;;;;;;;;;6.33;5.33;;;;;;;;6340100;22;45262;-70
2023/10/04 09:01:36;;;;;;;;;5.00;4.00;;;;;;;;6340319;22;45188;-70
2023/10/04 09:04:02;;;;;;;;;10.00;6.33;;;;;;;;6340171;22;45203;-70
2023/10/04 09:06:28;;;;;;;;;4.33;4.00;;;;;;;;6312041;22;46981;-70
2023/10/04 09:08:53;;;;;;;;;9.33;6.00;;;;;;;;6339702;22;46015;-70
2023/10/04 09:11:19;;;;;;;;;3.00;3.00;;;;;;;;6340729;22;45555;-70
2023/10/04 09:13:49;;;;;;;;;8.33;6.67;;;;;;;;6340403;22;45286;-70
2023/10/04 09:16:18;;;;;;;;;7.67;5.33;;;;;;;;6339892;22;45159;-70
2023/10/04 09:18:43;;;;;;;;;5.67;5.67;;;;;;;;6339460;22;45910;-70
2023/10/04 09:21:15;;;;;;;;;6.67;6.67;;;;;;;;6340545;22;45278;-70
2023/10/04 09:23:43;;;;;;;;;5.33;4.00;;;;;;;;6340658;22;45296;-70
2023/10/04 09:26:15;;;;;;;;;6.67;4.33;;;;;;;;6311308;22;45786;-70
2023/10/04 09:28:40;;;;;;;;;4.00;4.00;;;;;;;;6339857;22;45285;-70
2023/10/04 09:31:10;;;;;;;;;4.67;3.67;;;;;;;;6311221;22;45183;-70
2023/10/04 09:33:36;;;;;;;;;4.33;3.00;;;;;;;;6311616;22;45258;-70
2023/10/04 09:36:01;;;;;;;;;9.00;5.67;;;;;;;;6340417;22;45487;-70
2023/10/04 09:38:29;;;;;;;;;6.67;5.00;;;;;;;;6340260;22;45467;-70
2023/10/04 09:40:55;;;;;;;;;10.33;4.33;;;;;;;;6340294;22;45071;-70
2023/10/04 09:43:30;;;;;;;;;5.67;3.67;;;;;;;;6340371;22;45369;-70
2023/10/04 09:45:59;;;;;;;;;3.00;2.67;;;;;;;;6340345;22;45416;-70
2023/10/04 09:48:30;;;;;;;;;6.67;5.00;;;;;;;;6339379;22;45466;-70
2023/10/04 09:51:00;;;;;;;;;3.00;3.00;;;;;;;;6340407;22;45302;-70
2023/10/04 09:53:25;;;;;;;;;6.67;3.67;;;;;;;;6339797;22;45220;-70
2023/10/04 09:55:51;;;;;;;;;5.67;2.33;;;;;;;;6340242;22;45217;-70
2023/10/04 09:58:22;;;;;;;;;3.00;3.00;;;;;;;;6339627;22;46640;-70
2023/10/04 10:00:48;;;;;;;;;2.33;1.67;;;;;;;;6339933;22;45314;-70
2023/10/04 10:03:16;;;;;;;;;3.00;3.00;;;;;;;;6339752;22;45243;-70
2023/10/04 10:05:43;;;;;;;;;5.33;3.67;;;;;;;;6339986;22;45663;-70
2023/10/04 10:08:11;;;;;;;;;4.67;2.67;;;;;;;;6339700;22;45168;-70
2023/10/04 10:10:37;;;;;;;;;3.67;3.00;;;;;;;;6339808;22;45176;-70
2023/10/04 10:13:04;;;;;;;;;6.67;3.00;;;;;;;;6340737;22;45306;-70
2023/10/04 10:15:31;;;;;;;;;3.33;2.00;;;;;;;;6341558;22;45384;-70
2023/10/04 10:17:56;;;;;;;;;5.00;3.00;;;;;;;;6340447;22;46158;-70
2023/10/04 10:20:22;;;;;;;;;4.33;1.33;;;;;;;;6340574;22;45187;-70
2023/10/04 10:22:59;;;;;;;;;4.67;1.67;;;;;;;;6341471;22;45184;-70
2023/10/04 10:25:29;;;;;;;;;3.33;3.00;;;;;;;;6312302;22;45536;-70
2023/10/04 10:27:57;;;;;;;;;4.33;2.67;;;;;;;;6339572;22;45376;-70
2023/10/04 10:30:23;;;;;;;;;2.67;1.67;;;;;;;;6341521;22;45367;-69
2023/10/04 10:32:51;;;;;;;;;3.00;3.00;;;;;;;;6312940;22;45244;-70
2023/10/04 10:35:36;;;;;;;;;6.00;2.67;;;;;;;;6341374;22;45208;-70
2023/10/04 10:38:20;;;;;;;;;2.67;2.00;;;;;;;;6311024;22;47307;-70
2023/10/04 10:40:46;;;;;;;;;4.00;3.00;;;;;;;;6312007;22;45308;-70
2023/10/04 10:43:12;;;;;;;;;2.33;2.33;;;;;;;;6341423;22;45246;-70
2023/10/04 10:45:37;;;;;;;;;3.00;2.00;;;;;;;;6341353;22;45288;-70
2023/10/04 10:48:02;;;;;;;;;4.00;2.00;;;;;;;;6340800;22;46238;-70
2023/10/04 10:50:31;;;;;;;;;3.50;2.25;;;;;;;;6341237;22;45238;-70
2023/10/04 10:53:06;;;;;;;;;4.33;2.00;;;;;;;;6341320;22;45244;-70
2023/10/04 10:55:35;;;;;;;;;2.50;2.00;;;;;;;;6340966;22;45293;-70
2023/10/04 10:58:00;;;;;;;;;1.25;1.25;;;;;;;;6340915;22;46402;-70
2023/10/04 11:00:31;;;;;;;;;3.75;3.00;;;;;;;;6341162;22;45215;-70
2023/10/04 11:02:57;;;;;;;;;4.00;3.00;;;;;;;;6340489;22;45399;-70
2023/10/04 11:05:23;;;;;;;;;2.75;2.00;;;;;;;;6341242;22;45578;-70
2023/10/04 11:07:48;;;;;;;;;2.00;2.00;;;;;;;;6341001;22;45615;-70
2023/10/04 11:10:17;;;;;;;;;1.50;1.50;;;;;;;;6341213;22;45060;-70
2023/10/04 11:12:44;;;;;;;;;3.00;0.25;;;;;;;;6312936;22;45282;-71
2023/10/04 11:15:10;;;;;;;;;1.25;1.25;;;;;;;;6311746;22;45236;-70
2023/10/04 11:17:36;;;;;;;;;2.50;2.00;;;;;;;;6312215;22;46871;-70
2023/10/04 11:20:09;;;;;;;;;2.25;2.00;;;;;;;;6340018;22;45171;-71
2023/10/04 11:22:36;;;;;;;;;2.75;1.00;;;;;;;;6340712;22;45366;-70
2023/10/04 11:25:01;;;;;;;;;2.00;2.00;;;;;;;;6341101;22;45171;-70
2023/10/04 11:27:27;;;;;;;;;3.00;1.75;;;;;;;;6311523;22;47862;-70
2023/10/04 11:29:52;;;;;;;;;1.00;1.00;;;;;;;;6340827;22;45226;-70
2023/10/04 11:32:17;;;;;;;;;1.00;1.00;;;;;;;;6313037;22;45164;-71
2023/10/04 11:34:44;;;;;;;;;2.00;1.00;;;;;;;;6340227;22;45255;-71
2023/10/04 11:37:09;;;;;;;;;3.00;1.50;;;;;;;;6341208;22;45144;-70
2023/10/04 11:39:36;;;;;;;;;2.50;1.00;;;;;;;;6340905;22;45214;-70
2023/10/04 11:42:02;;;;;;;;;6.25;2.00;;;;;;;;6341132;22;45329;-70
2023/10/04 11:44:32;;;;;;;;;1.25;1.00;;;;;;;;6311452;22;45554;-70
2023/10/04 11:46:59;;;;;;;;;2.00;1.50;;;;;;;;6341010;22;45317;-70
2023/10/04 11:49:24;;;;;;;;;4.25;1.25;;;;;;;;6340325;22;45218;-70
2023/10/04 11:51:53;;;;;;;;;1.50;1.00;;;;;;;;6341519;22;45209;-70
2023/10/04 11:54:19;;;;;;;;;2.25;1.00;;;;;;;;6340577;22;45199;-70
2023/10/04 11:56:44;;;;;;;;;1.00;1.00;;;;;;;;6340925;22;46369;-70
2023/10/04 11:59:09;;;;;;;;;1.00;1.00;;;;;;;;6340769;22;45285;-70
2023/10/04 12:01:47;;;;;;;;;2.00;1.00;;;;;;;;6341216;22;45278;-70
2023/10/04 12:04:13;;;;;;;;;3.50;1.00;;;;;;;;6340601;22;45155;-70
2023/10/04 12:06:40;;;;;;;;;3.00;2.00;;;;;;;;6340550;22;46061;-70
2023/10/04 12:09:07;;;;;;;;;2.00;0.25;;;;;;;;6340586;22;45235;-70
2023/10/04 12:11:35;;;;;;;;;2.50;1.00;;;;;;;;6340956;22;45297;-70
2023/10/04 12:14:01;;;;;;;;;1.00;1.00;;;;;;;;6340448;22;45174;-70
2023/10/04 12:16:27;;;;;;;;;3.25;2.00;;;;;;;;6340893;22;45212;-70
2023/10/04 12:18:52;;;;;;;;;1.00;1.00;;;;;;;;6339877;22;45220;-70
2023/10/04 12:21:18;;;;;;;;;3.25;2.00;;;;;;;;6312313;22;45475;-69
2023/10/04 12:23:44;;;;;;;;;1.00;1.00;;;;;;;;6311903;22;46385;-70
2023/10/04 12:26:10;;;;;;;;;3.00;0.00;;;;;;;;6340546;22;46409;-70
2023/10/04 12:28:37;;;;;;;;;1.00;0.25;;;;;;;;6340713;22;45321;-70
2023/10/04 12:31:05;;;;;;;;;0.25;0.25;;;;;;;;6340848;22;45221;-70
2023/10/04 12:33:30;;;;;;;;;2.00;2.00;;;;;;;;6340310;22;45249;-70
2023/10/04 12:35:55;;;;;;;;;2.00;0.75;;;;;;;;6340291;22;46479;-69
2023/10/04 12:38:24;;;;;;;;;1.00;1.00;;;;;;;;6341005;22;45155;-69
2023/10/04 12:40:49;;;;;;;;;2.25;1.00;;;;;;;;6340410;22;45230;-69
2023/10/04 12:43:14;;;;;;;;;2.75;1.50;;;;;;;;6340656;22;45226;-71
2023/10/04 12:45:39;;;;;;;;;1.25;1.25;;;;;;;;6340786;22;45664;-71
2023/10/04 12:48:06;;;;;;;;;2.75;1.00;;;;;;;;6340039;22;45293;-71
2023/10/04 12:50:32;;;;;;;;;2.25;2.25;;;;;;;;6340239;22;45221;-71
2023/10/04 12:52:57;;;;;;;;;2.00;0.75;;;;;;;;6338581;22;45398;-71
2023/10/04 12:55:24;;;;;;;;;0.00;0.00;;;;;;;;6340838;22;45312;-70
2023/10/04 12:57:50;;;;;;;;;1.75;1.00;;;;;;;;6340583;22;45267;-71
2023/10/04 13:00:15;;;;;;;;;3.00;1.50;;;;;;;;6340772;22;45544;-70
2023/10/04 13:02:44;;;;;;;;;0.00;0.00;;;;;;;;6311726;22;45844;-70
2023/10/04 13:05:18;;;;;;;;;3.00;1.25;;;;;;;;6311937;22;47235;-71
2023/10/04 13:07:43;;;;;;;;;2.00;0.50;;;;;;;;6340181;22;45317;-71
2023/10/04 13:10:12;;;;;;;;;1.75;1.00;;;;;;;;6340825;22;45211;-71
2023/10/04 13:12:37;;;;;;;;;1.00;1.00;;;;;;;;6339867;22;45295;-72
2023/10/04 13:15:04;;;;;;;;;2.00;1.25;;;;;;;;6340408;22;46117;-71
2023/10/04 13:17:29;;;;;;;;;1.00;1.00;;;;;;;;6340461;22;45248;-70
2023/10/04 13:19:55;;;;;;;;;2.00;0.75;;;;;;;;6339653;22;45179;-71
2023/10/04 13:22:22;;;;;;;;;2.50;1.00;;;;;;;;6340593;22;45368;-71
2023/10/04 13:24:47;;;;;;;;;2.75;1.50;;;;;;;;6340007;22;46302;-71
2023/10/04 13:27:13;;;;;;;;;4.00;1.75;;;;;;;;6339881;22;45216;-71
2023/10/04 13:29:38;;;;;;;;;4.00;2.25;;;;;;;;6340400;22;45197;-70
2023/10/04 13:32:03;;;;;;;;;3.00;1.50;;;;;;;;6340569;22;45398;-70
2023/10/04 13:34:30;;;;;;;;;1.00;1.00;;;;;;;;6311080;22;47108;-71
2023/10/04 13:36:55;;;;;;;;;2.00;2.00;;;;;;;;6336338;22;45224;-71
2023/10/04 13:39:20;;;;;;;;;0.75;0.75;;;;;;;;6337559;22;45337;-70
2023/10/04 13:41:45;;;;;;;;;1.75;1.75;;;;;;;;6337786;22;45248;-71
2023/10/04 13:44:12;;;;;;;;;1.00;1.00;;;;;;;;6310338;22;46549;-70
2023/10/04 13:46:37;;;;;;;;;1.50;0.75;;;;;;;;6310215;22;45105;-71
2023/10/04 13:49:02;;;;;;;;;1.00;0.75;;;;;;;;6311562;22;45207;-70
2023/10/04 13:51:27;;;;;;;;;1.25;1.25;;;;;;;;6340469;22;45489;-70
2023/10/04 13:53:53;;;;;;;;;3.00;1.00;;;;;;;;6340147;22;45321;-70
2023/10/04 13:56:18;;;;;;;;;1.00;1.00;;;;;;;;6339741;22;45226;-70
2023/10/04 13:58:43;;;;;;;;;5.25;1.75;;;;;;;;6339702;22;45262;-70
2023/10/04 14:01:11;;;;;;;;;4.50;1.00;;;;;;;;6340765;22;45344;-70
2023/10/04 14:03:36;;;;;;;;;1.75;1.00;;;;;;;;6340446;22;45329;-70
2023/10/04 14:06:12;;;;;;;;;1.50;1.50;;;;;;;;6341782;22;45254;-70
2023/10/04 14:08:37;;;;;;;;;1.00;1.00;;;;;;;;6312502;22;45430;-70
2023/10/04 14:11:04;;;;;;;;;1.75;1.75;;;;;;;;6312263;22;45876;-71
2023/10/04 14:13:30;;;;;;;;;2.00;2.00;;;;;;;;6341076;22;45301;-70
2023/10/04 14:15:56;;;;;;;;;3.00;2.00;;;;;;;;6313293;22;45334;-70
2023/10/04 14:18:22;;;;;;;;;4.50;2.00;;;;;;;;6312216;22;45255;-70
2023/10/04 14:20:50;;;;;;;;;1.50;1.50;;;;;;;;6312596;22;45327;-70
2023/10/04 14:23:16;;;;;;;;;2.00;2.00;;;;;;;;6339280;22;45285;-70
2023/10/04 14:25:41;;;;;;;;;4.00;2.75;;;;;;;;6341345;22;45225;-70
2023/10/04 14:28:06;;;;;;;;;3.75;1.75;;;;;;;;6341337;22;45307;-70
2023/10/04 14:30:32;;;;;;;;;4.75;3.00;;;;;;;;6341244;22;45322;-70
2023/10/04 14:32:57;;;;;;;;;3.00;3.00;;;;;;;;6311571;22;47837;-70
2023/10/04 14:35:23;;;;;;;;;3.00;1.75;;;;;;;;6341529;22;45100;-70
2023/10/04 14:37:49;;;;;;;;;2.50;1.00;;;;;;;;6341328;22;45195;-71
2023/10/04 14:40:17;;;;;;;;;1.00;0.75;;;;;;;;6341202;22;45318;-70
2023/10/04 14:42:42;;;;;;;;;2.00;2.00;;;;;;;;6340753;22;46293;-70
2023/10/04 14:45:08;;;;;;;;;4.00;3.00;;;;;;;;6341391;22;45263;-70
2023/10/04 14:47:36;;;;;;;;;2.00;2.00;;;;;;;;6312950;22;45247;-70
2023/10/04 14:50:08;;;;;;;;;3.25;2.00;;;;;;;;6312126;22;45808;-70
2023/10/04 14:52:33;;;;;;;;;3.00;1.25;;;;;;;;6341347;22;45459;-70
2023/10/04 14:55:01;;;;;;;;;1.00;1.00;;;;;;;;6341341;22;45231;-70
2023/10/04 14:57:26;;;;;;;;;2.00;2.00;;;;;;;;6341312;22;45105;-70
2023/10/04 14:59:51;;;;;;;;;1.00;1.00;;;;;;;;6340957;22;45188;-70
2023/10/04 15:02:17;;;;;;;;;0.00;0.00;;;;;;;;6341589;22;46161;-70
2023/10/04 15:04:43;;;;;;;;;2.75;1.50;;;;;;;;6312311;22;45304;-70
2023/10/04 15:07:09;;;;;;;;;3.75;1.50;;;;;;;;6341642;22;45199;-70
2023/10/04 15:09:34;;;;;;;;;1.00;1.00;;;;;;;;6312448;22;45794;-70
2023/10/04 15:11:59;;;;;;;;;4.00;1.25;;;;;;;;6341315;22;46071;-70
2023/10/04 15:14:28;;;;;;;;;2.00;2.00;;;;;;;;6341044;22;45298;-70
2023/10/04 15:16:53;;;;;;;;;1.00;1.00;;;;;;;;6341104;22;45222;-70
2023/10/04 15:19:19;;;;;;;;;3.25;1.00;;;;;;;;6339757;22;45694;-70
2023/10/04 15:21:45;;;;;;;;;2.25;2.00;;;;;;;;6341216;22;45493;-70
2023/10/04 15:24:14;;;;;;;;;1.25;1.25;;;;;;;;6311917;22;45171;-70
2023/10/04 15:26:39;;;;;;;;;3.50;3.00;;;;;;;;6340142;22;45144;-70
2023/10/04 15:29:05;;;;;;;;;0.25;0.25;;;;;;;;6340854;22;45239;-70
2023/10/04 15:31:31;;;;;;;;;2.50;1.25;;;;;;;;6313031;22;47362;-70
2023/10/04 15:33:57;;;;;;;;;3.00;2.00;;;;;;;;6340231;22;45305;-70
2023/10/04 15:36:22;;;;;;;;;1.00;1.00;;;;;;;;6313010;22;45427;-70
2023/10/04 15:38:48;;;;;;;;;3.00;1.50;;;;;;;;6312093;22;47217;-70
2023/10/04 15:41:14;;;;;;;;;1.25;1.00;;;;;;;;6340983;22;45259;-70
2023/10/04 15:43:39;;;;;;;;;1.25;1.00;;;;;;;;6311486;22;45567;-70
2023/10/04 15:46:06;;;;;;;;;1.00;1.00;;;;;;;;6341513;22;45286;-71
2023/10/04 15:48:31;;;;;;;;;1.50;1.50;;;;;;;;6339971;22;45386;-71
2023/10/04 15:50:56;;;;;;;;;3.00;2.00;;;;;;;;6340481;22;45140;-71
2023/10/04 15:53:22;;;;;;;;;3.00;1.75;;;;;;;;6312505;22;45839;-71
2023/10/04 15:55:47;;;;;;;;;3.00;2.00;;;;;;;;6340550;22;45120;-71
2023/10/04 15:58:13;;;;;;;;;3.00;2.00;;;;;;;;6311665;22;46525;-71
2023/10/04 16:00:40;;;;;;;;;1.50;1.50;;;;;;;;6340895;22;45345;-71
2023/10/04 16:03:05;;;;;;;;;1.00;1.00;;;;;;;;6340386;22;45226;-71
2023/10/04 16:05:31;;;;;;;;;2.00;1.00;;;;;;;;6341445;22;45217;-71
2023/10/04 16:07:56;;;;;;;;;3.75;2.00;;;;;;;;6340332;22;45239;-71
2023/10/04 16:10:25;;;;;;;;;5.00;3.67;;;;;;;;6339937;22;45406;-71
2023/10/04 16:12:50;;;;;;;;;1.33;1.33;;;;;;;;6340292;22;45609;-71
2023/10/04 16:15:16;;;;;;;;;1.00;1.00;;;;;;;;6312566;22;45244;-71
2023/10/04 16:17:41;;;;;;;;;4.33;1.00;;;;;;;;6340583;22;45091;-71
2023/10/04 16:20:07;;;;;;;;;2.00;2.00;;;;;;;;6312030;22;46956;-70
2023/10/04 16:22:38;;;;;;;;;1.33;1.00;;;;;;;;6340979;22;45113;-70
2023/10/04 16:25:04;;;;;;;;;2.00;2.00;;;;;;;;6340913;22;45317;-70
2023/10/04 16:27:29;;;;;;;;;2.00;2.00;;;;;;;;6340637;22;45196;-71
2023/10/04 16:29:55;;;;;;;;;1.33;0.33;;;;;;;;6340039;22;46444;-71
2023/10/04 16:32:23;;;;;;;;;5.00;1.67;;;;;;;;6341032;22;45290;-71
2023/10/04 16:34:48;;;;;;;;;1.33;1.00;;;;;;;;6310816;22;45295;-71
2023/10/04 16:37:13;;;;;;;;;3.33;2.00;;;;;;;;6341161;22;45185;-71
2023/10/04 16:39:38;;;;;;;;;1.67;1.67;;;;;;;;6340313;22;46415;-71
2023/10/04 16:42:04;;;;;;;;;3.33;1.00;;;;;;;;6312520;22;45210;-71
2023/10/04 16:44:29;;;;;;;;;1.00;1.00;;;;;;;;6340505;22;45211;-71
2023/10/04 16:46:54;;;;;;;;;1.00;1.00;;;;;;;;6312293;22;45528;-72
2023/10/04 16:49:19;;;;;;;;;4.00;2.00;;;;;;;;6339577;22;45207;-71
2023/10/04 16:51:45;;;;;;;;;2.00;2.00;;;;;;;;6340860;22;45332;-70
2023/10/04 16:54:10;;;;;;;;;2.33;0.33;;;;;;;;6340475;22;45259;-71
2023/10/04 16:56:35;;;;;;;;;2.00;2.00;;;;;;;;6340824;22;45535;-70
2023/10/04 16:59:01;;;;;;;;;4.00;2.67;;;;;;;;6311939;22;46332;-71
2023/10/04 17:01:26;;;;;;;;;1.00;1.00;;;;;;;;6340596;22;45240;-70
2023/10/04 17:03:51;;;;;;;;;2.00;1.67;;;;;;;;6340321;22;45296;-71
2023/10/04 17:06:16;;;;;;;;;6.67;2.67;;;;;;;;6340867;22;45255;-71
2023/10/04 17:08:42;;;;;;;;;3.00;2.00;;;;;;;;6340350;22;45399;-71
2023/10/04 17:11:07;;;;;;;;;2.67;1.67;;;;;;;;6340818;22;45287;-71
2023/10/04 17:13:32;;;;;;;;;6.00;2.00;;;;;;;;6312246;22;45288;-70
2023/10/04 17:15:58;;;;;;;;;1.00;1.00;;;;;;;;6311936;22;45644;-70
2023/10/04 17:18:23;;;;;;;;;3.00;3.00;;;;;;;;6310782;22;47023;-71
2023/10/04 17:20:49;;;;;;;;;2.00;2.00;;;;;;;;6311397;22;45286;-71
2023/10/04 17:23:15;;;;;;;;;3.33;2.00;;;;;;;;6311997;22;45302;-71
2023/10/04 17:25:41;;;;;;;;;5.67;4.67;;;;;;;;6339688;22;45219;-72
2023/10/04 17:28:06;;;;;;;;;6.00;5.00;;;;;;;;6340061;22;45203;-71
2023/10/04 17:30:31;;;;;;;;;4.33;3.33;;;;;;;;6339208;22;45138;-70
2023/10/04 17:32:58;;;;;;;;;3.00;2.00;;;;;;;;6339998;22;45456;-71
2023/10/04 17:35:23;;;;;;;;;3.67;1.67;;;;;;;;6312085;22;45172;-71
2023/10/04 17:37:48;;;;;;;;;2.33;2.33;;;;;;;;6340040;22;46207;-71
2023/10/04 17:40:14;;;;;;;;;5.33;3.67;;;;;;;;6311762;22;45122;-70
2023/10/04 17:42:39;;;;;;;;;5.33;3.67;;;;;;;;6340393;22;45202;-71
2023/10/04 17:45:05;;;;;;;;;1.67;0.33;;;;;;;;6340109;22;45231;-71
2023/10/04 17:47:30;;;;;;;;;3.33;3.33;;;;;;;;6311755;22;45330;-70
2023/10/04 17:49:56;;;;;;;;;4.00;2.00;;;;;;;;6339646;22;45226;-71
2023/10/04 17:52:21;;;;;;;;;5.33;2.67;;;;;;;;6340634;22;45521;-70
2023/10/04 17:54:46;;;;;;;;;4.00;4.00;;;;;;;;6339906;22;45266;-71
2023/10/04 17:57:12;;;;;;;;;1.67;1.67;;;;;;;;6340294;22;46615;-71
2023/10/04 17:59:38;;;;;;;;;4.67;3.00;;;;;;;;6339784;22;45265;-71
2023/10/04 18:02:03;;;;;;;;;3.33;3.33;;;;;;;;6340510;22;45282;-71
2023/10/04 18:04:28;;;;;;;;;4.00;3.67;;;;;;;;6339135;22;45248;-71
2023/10/04 18:06:54;;;;;;;;;4.67;4.33;;;;;;;;6340038;22;46193;-71
2023/10/04 18:09:19;;;;;;;;;6.33;6.00;;;;;;;;6339925;22;45264;-72
2023/10/04 18:11:44;;;;;;;;;6.33;5.67;;;;;;;;6311556;22;45275;-72
2023/10/04 18:14:10;;;;;;;;;5.67;4.67;;;;;;;;6310667;22;46754;-72
2023/10/04 18:16:35;;;;;;;;;4.67;4.67;;;;;;;;6340061;22;45254;-71
2023/10/04 18:19:01;;;;;;;;;5.67;5.67;;;;;;;;6309445;22;45273;-71
2023/10/04 18:21:26;;;;;;;;;7.67;6.67;;;;;;;;6340370;22;45156;-71
2023/10/04 18:23:51;;;;;;;;;10.33;8.33;;;;;;;;6339681;22;45215;-71
2023/10/04 18:26:17;;;;;;;;;8.00;8.00;;;;;;;;6339816;22;45278;-71
2023/10/04 18:28:42;;;;;;;;;12.00;10.00;;;;;;;;6339424;22;45128;-71
2023/10/04 18:31:09;;;;;;;;;9.00;7.67;;;;;;;;6339921;22;45127;-72
2023/10/04 18:33:35;;;;;;;;;8.00;6.67;;;;;;;;6339932;22;45444;-71
2023/10/04 18:36:00;;;;;;;;;8.67;7.33;;;;;;;;6341463;22;45754;-71
2023/10/04 18:38:27;;;;;;;;;12.00;9.33;;;;;;;;6341090;22;45100;-72
2023/10/04 18:40:52;;;;;;;;;8.00;7.33;;;;;;;;6341742;22;45289;-71
2023/10/04 18:43:18;;;;;;;;;14.00;10.67;;;;;;;;6340987;22;45212;-72
2023/10/04 18:45:44;;;;;;;;;8.67;8.67;;;;;;;;6340995;22;45290;-72
2023/10/04 18:48:09;;;;;;;;;10.33;10.33;;;;;;;;6311849;22;44700;-71
2023/10/04 18:50:34;;;;;;;;;9.67;6.00;;;;;;;;6340136;22;45299;-72
2023/10/04 18:53:00;;;;;;;;;18.67;17.33;;;;;;;;6341004;22;45168;-71
2023/10/04 18:55:25;;;;;;;;;27.67;23.33;;;;;;;;6340999;22;45290;-71
2023/10/04 18:57:50;;;;;;;;;27.67;21.00;;;;;;;;6341239;22;45228;-72
2023/10/04 19:00:16;;;;;;;;;26.33;23.00;;;;;;;;6312872;22;45271;-72
2023/10/04 19:02:42;;;;;;;;;25.00;21.33;;;;;;;;6341020;22;45357;-72
2023/10/04 19:05:08;;;;;;;;;19.00;17.00;;;;;;;;6340404;22;45501;-72
2023/10/04 19:07:34;;;;;;;;;20.00;17.67;;;;;;;;6341405;22;45375;-72
2023/10/04 19:09:59;;;;;;;;;22.00;18.00;;;;;;;;6340844;22;45215;-71
2023/10/04 19:12:24;;;;;;;;;17.00;17.00;;;;;;;;6341617;22;45096;-71
2023/10/04 19:14:49;;;;;;;;;21.00;17.00;;;;;;;;6340668;22;46316;-71
2023/10/04 19:17:16;;;;;;;;;17.00;12.00;;;;;;;;6341273;22;45144;-72
2023/10/04 19:19:41;;;;;;;;;18.00;15.33;;;;;;;;6339994;22;45297;-72
2023/10/04 19:22:10;;;;;;;;;21.67;17.33;;;;;;;;6341357;22;45433;-71
2023/10/04 19:24:35;;;;;;;;;37.33;31.33;;;;;;;;6340238;22;46227;-72
2023/10/04 19:27:02;;;;;;;;;46.25;36.75;;;;;;;;6340799;22;45316;-72
2023/10/04 19:29:27;;;;;;;;;48.25;37.75;;;;;;;;6311948;22;45242;-72
2023/10/04 19:31:53;;;;;;;;;47.25;35.75;;;;;;;;6341332;22;45409;-71
2023/10/04 19:34:19;;;;;;;;;51.00;39.00;;;;;;;;6340587;22;45868;-71
2023/10/04 19:36:45;;;;;;;;;44.00;33.75;;;;;;;;6341114;22;45176;-71
2023/10/04 19:39:12;;;;;;;;;38.25;28.50;;;;;;;;6312528;22;45267;-72
2023/10/04 19:41:37;;;;;;;;;39.00;32.00;;;;;;;;6340985;22;45491;-72
2023/10/04 19:44:03;;;;;;;;;33.67;29.67;;;;;;;;6340530;22;45225;-72
2023/10/04 19:46:29;;;;;;;;;32.33;26.33;;;;;;;;6312800;22;45766;-71
2023/10/04 19:48:54;;;;;;;;;25.00;22.67;;;;;;;;6340308;22;45291;-72
2023/10/04 19:51:19;;;;;;;;;24.67;21.67;;;;;;;;6341162;22;45304;-72
2023/10/04 19:53:46;;;;;;;;;15.67;14.33;;;;;;;;6340589;22;45352;-72
2023/10/04 19:56:14;;;;;;;;;24.67;22.00;;;;;;;;6312943;22;45208;-72
2023/10/04 19:58:40;;;;;;;;;24.00;20.67;;;;;;;;6312064;22;45202;-72
2023/10/04 20:01:05;;;;;;;;;26.33;24.00;;;;;;;;6341073;22;45471;-72
2023/10/04 20:03:31;;;;;;;;;26.00;23.67;;;;;;;;6339565;22;46169;-72
2023/10/04 20:05:57;;;;;;;;;23.67;20.33;;;;;;;;6340960;22;45329;-72
2023/10/04 20:08:25;;;;;;;;;27.67;25.00;;;;;;;;6312011;22;45298;-73
2023/10/04 20:10:51;;;;;;;;;21.00;21.00;;;;;;;;6340806;22;45470;-72
2023/10/04 20:13:16;;;;;;;;;27.00;21.33;;;;;;;;6340342;22;45192;-73
2023/10/04 20:15:42;;;;;;;;;22.00;18.67;;;;;;;;6340991;22;45282;-73
2023/10/04 20:18:08;;;;;;;;;22.00;19.33;;;;;;;;6340764;22;45189;-72
2023/10/04 20:20:37;;;;;;;;;23.00;20.00;;;;;;;;6340497;22;45099;-71
2023/10/04 20:23:02;;;;;;;;;20.67;19.67;;;;;;;;6311170;22;46933;-73
2023/10/04 20:25:29;;;;;;;;;22.00;19.00;;;;;;;;6311846;22;45264;-72
2023/10/04 20:27:54;;;;;;;;;25.67;20.00;;;;;;;;6340473;22;45325;-72
2023/10/04 20:30:20;;;;;;;;;22.00;18.67;;;;;;;;6312507;22;46030;-72
2023/10/04 20:32:45;;;;;;;;;20.00;15.33;;;;;;;;6340149;22;45425;-71
2023/10/04 20:35:11;;;;;;;;;16.33;15.00;;;;;;;;6340657;22;45231;-72
2023/10/04 20:37:36;;;;;;;;;13.33;13.33;;;;;;;;6341106;22;45213;-73
2023/10/04 20:40:04;;;;;;;;;12.67;12.00;;;;;;;;6340498;22;45369;-73
2023/10/04 20:42:32;;;;;;;;;14.33;13.00;;;;;;;;6340761;22;45574;-73
2023/10/04 20:44:57;;;;;;;;;15.67;13.00;;;;;;;;6340188;22;45273;-73
2023/10/04 20:47:22;;;;;;;;;13.00;10.67;;;;;;;;6340840;22;45226;-72
2023/10/04 20:49:48;;;;;;;;;11.33;11.00;;;;;;;;6311673;22;46404;-71
2023/10/04 20:52:13;;;;;;;;;13.00;11.00;;;;;;;;6340963;22;46551;-71
2023/10/04 20:54:39;;;;;;;;;13.67;10.00;;;;;;;;6340385;22;45241;-73
2023/10/04 20:57:05;;;;;;;;;14.00;11.67;;;;;;;;6340594;22;45250;-71
2023/10/04 20:59:30;;;;;;;;;17.33;13.33;;;;;;;;6311146;22;45712;-71
2023/10/04 21:01:56;;;;;;;;;10.33;9.00;;;;;;;;6340859;22;45499;-70
2023/10/04 21:04:21;;;;;;;;;13.67;11.00;;;;;;;;6340212;22;45232;-71
2023/10/04 21:06:46;;;;;;;;;13.00;10.67;;;;;;;;6340592;22;45239;-71
2023/10/04 21:09:15;;;;;;;;;14.00;10.00;;;;;;;;6311664;22;45577;-70
2023/10/04 21:11:42;;;;;;;;;11.00;11.00;;;;;;;;6340183;22;46143;-71
